Etusivu
METAR-TAF:

METAR-TAF

Lentoasemat :

Victoria, Mahé, Seychellit

Leveyspiiri: 04-40S, Pituuspiiri: 055-31E, korkeus merenpinnasta: 3 m

Tämänhetkinen sää

Tämä raportti tehtiin 50 minuuttia sitten, kello 21.00 UTC
Tuuli 6 kn etelästä/kaakosta, vaihdellen kaakon ja etelän välillä
Lämpötila 25°C
Kosteus 83%
Ilmanpaine 1013 hPa
Näkyvyys 10 km tai enemmän
Hajanaisia pilviä 2000 ft:n korkeudessa
Hajanaisia pilviä 3000 ft:n korkeudessa

METAR: FSIA 182100Z 15006KT 130V190 9999 SCT020 SCT030 25/22 Q1013 NOSIG

Aika: 01:50 (21:50 UTC)

Sääennuste

Tämä raportti tehtiin 4 tuntia ja 46 minuuttia sitten, kello 17.04 UTC
Ennuste voimassa 18. päivästä klo 18 UTC - 19. päivään klo 18 UTC
Tuuli 10 kn kaakosta
Näkyvyys 10 km tai enemmän
Muutamia pilviä 2400 ft:n korkeudessa

TAF: FSIA 181704Z 1818/1918 14010KT 9999 FEW024

Säähavainnot ja -ennusteet yli 4000 lentoasemalta (METAR- ja TAF-raportit).

Käytössä olevat sääasemat on merkitty karttaan keltaisilla ja punaisilla pisteillä.

Aseta hiiri pisteen päälle nähdäksesi sääaseman nimen.

Klikkaa sitten nähdäksesi säähavainnot ja -ennusteet.

Kartan vaihtaminen: klikkaa mustalla rastilla varustettuja vihreitä pisteitä, niin voit zoomata sisään; viivalla varustettua vihreää pistettä, niin voit zoomata ulos tai vihreitä nuolia, niin pääset viereisille kartoille.


METAR-TAF: